sensor_id;sensor_type;location;lat;lon;timestamp;pressure;altitude;pressure_sealevel;temperature;humidity
7966;BME280;4028;43.272;26.932;2023-06-22T00:00:53;99355.03;;;22.68;100.00
7966;BME280;4028;43.272;26.932;2023-06-22T00:03:20;99364.78;;;22.62;100.00
7966;BME280;4028;43.272;26.932;2023-06-22T00:05:46;99370.56;;;22.66;100.00
7966;BME280;4028;43.272;26.932;2023-06-22T00:08:12;99375.78;;;22.61;100.00
7966;BME280;4028;43.272;26.932;2023-06-22T00:10:37;99366.94;;;22.53;100.00
7966;BME280;4028;43.272;26.932;2023-06-22T00:13:03;99365.44;;;22.57;100.00
7966;BME280;4028;43.272;26.932;2023-06-22T00:15:29;99368.38;;;22.49;100.00
7966;BME280;4028;43.272;26.932;2023-06-22T00:17:55;99372.97;;;22.49;100.00
7966;BME280;4028;43.272;26.932;2023-06-22T00:20:22;99370.50;;;22.41;100.00
7966;BME280;4028;43.272;26.932;2023-06-22T00:22:48;99374.00;;;22.48;100.00
7966;BME280;4028;43.272;26.932;2023-06-22T00:25:13;99379.00;;;22.44;100.00
7966;BME280;4028;43.272;26.932;2023-06-22T00:27:39;99384.19;;;22.39;100.00
7966;BME280;4028;43.272;26.932;2023-06-22T00:30:05;99378.63;;;22.34;100.00
7966;BME280;4028;43.272;26.932;2023-06-22T00:32:30;99387.34;;;22.29;100.00
7966;BME280;4028;43.272;26.932;2023-06-22T00:34:56;99374.66;;;22.37;100.00
7966;BME280;4028;43.272;26.932;2023-06-22T00:37:21;99365.75;;;22.36;100.00
7966;BME280;4028;43.272;26.932;2023-06-22T00:39:53;99353.19;;;22.23;100.00
7966;BME280;4028;43.272;26.932;2023-06-22T00:42:19;99364.94;;;22.36;100.00
7966;BME280;4028;43.272;26.932;2023-06-22T00:44:45;99357.09;;;22.27;100.00
7966;BME280;4028;43.272;26.932;2023-06-22T00:47:16;99362.91;;;22.24;100.00
7966;BME280;4028;43.272;26.932;2023-06-22T00:49:43;99361.84;;;22.25;100.00
7966;BME280;4028;43.272;26.932;2023-06-22T00:52:09;99362.72;;;22.19;100.00
7966;BME280;4028;43.272;26.932;2023-06-22T00:54:41;99358.19;;;22.06;100.00
7966;BME280;4028;43.272;26.932;2023-06-22T00:57:12;99366.50;;;22.12;100.00
7966;BME280;4028;43.272;26.932;2023-06-22T00:59:42;99363.38;;;22.08;100.00
7966;BME280;4028;43.272;26.932;2023-06-22T01:02:08;99376.22;;;22.06;100.00
7966;BME280;4028;43.272;26.932;2023-06-22T01:04:38;99377.06;;;22.00;100.00
7966;BME280;4028;43.272;26.932;2023-06-22T01:09:53;99388.06;;;22.12;100.00
7966;BME280;4028;43.272;26.932;2023-06-22T01:12:22;99381.00;;;22.04;100.00
7966;BME280;4028;43.272;26.932;2023-06-22T01:15:57;99385.56;;;21.90;100.00
7966;BME280;4028;43.272;26.932;2023-06-22T01:17:52;99396.19;;;21.78;100.00
7966;BME280;4028;43.272;26.932;2023-06-22T01:20:20;99393.28;;;21.80;100.00
7966;BME280;4028;43.272;26.932;2023-06-22T01:25:36;99397.44;;;21.76;100.00
7966;BME280;4028;43.272;26.932;2023-06-22T01:30:59;99399.50;;;21.74;100.00
7966;BME280;4028;43.272;26.932;2023-06-22T01:33:35;99396.00;;;21.67;100.00
7966;BME280;4028;43.272;26.932;2023-06-22T01:36:03;99395.81;;;21.55;100.00
7966;BME280;4028;43.272;26.932;2023-06-22T01:38:30;99408.84;;;21.65;100.00
7966;BME280;4028;43.272;26.932;2023-06-22T01:40:57;99406.34;;;21.63;100.00
7966;BME280;4028;43.272;26.932;2023-06-22T01:43:25;99408.44;;;21.54;100.00
7966;BME280;4028;43.272;26.932;2023-06-22T01:45:51;99394.13;;;21.54;100.00
7966;BME280;4028;43.272;26.932;2023-06-22T01:48:18;99390.84;;;21.39;100.00
7966;BME280;4028;43.272;26.932;2023-06-22T01:50:44;99385.47;;;21.32;100.00
7966;BME280;4028;43.272;26.932;2023-06-22T01:53:10;99394.16;;;21.34;100.00
7966;BME280;4028;43.272;26.932;2023-06-22T01:55:36;99380.44;;;21.29;100.00
7966;BME280;4028;43.272;26.932;2023-06-22T01:58:01;99339.06;;;20.90;100.00
7966;BME280;4028;43.272;26.932;2023-06-22T02:00:28;99378.81;;;21.15;100.00
7966;BME280;4028;43.272;26.932;2023-06-22T02:02:59;99381.91;;;21.18;100.00
7966;BME280;4028;43.272;26.932;2023-06-22T02:05:33;99387.72;;;21.15;100.00
7966;BME280;4028;43.272;26.932;2023-06-22T02:08:21;99378.00;;;21.14;100.00
7966;BME280;4028;43.272;26.932;2023-06-22T02:10:49;99371.56;;;21.15;100.00
7966;BME280;4028;43.272;26.932;2023-06-22T02:13:16;99381.50;;;21.08;100.00
7966;BME280;4028;43.272;26.932;2023-06-22T02:15:42;99391.44;;;21.08;100.00
7966;BME280;4028;43.272;26.932;2023-06-22T02:18:08;99391.84;;;21.05;100.00
7966;BME280;4028;43.272;26.932;2023-06-22T02:20:36;99388.72;;;21.01;100.00
7966;BME280;4028;43.272;26.932;2023-06-22T02:23:02;99393.72;;;21.04;100.00
7966;BME280;4028;43.272;26.932;2023-06-22T02:25:27;99385.66;;;21.04;100.00
7966;BME280;4028;43.272;26.932;2023-06-22T02:27:53;99395.56;;;20.97;100.00
7966;BME280;4028;43.272;26.932;2023-06-22T02:30:18;99368.66;;;20.84;100.00
7966;BME280;4028;43.272;26.932;2023-06-22T02:32:44;99400.09;;;21.03;100.00
7966;BME280;4028;43.272;26.932;2023-06-22T02:35:09;99397.41;;;21.03;100.00
7966;BME280;4028;43.272;26.932;2023-06-22T02:37:36;99397.22;;;20.98;100.00
7966;BME280;4028;43.272;26.932;2023-06-22T02:40:07;99408.19;;;20.96;100.00
7966;BME280;4028;43.272;26.932;2023-06-22T02:42:34;99405.06;;;20.93;100.00
7966;BME280;4028;43.272;26.932;2023-06-22T02:45:00;99410.03;;;20.96;100.00
7966;BME280;4028;43.272;26.932;2023-06-22T02:47:26;99414.81;;;21.00;100.00
7966;BME280;4028;43.272;26.932;2023-06-22T02:49:51;99419.16;;;20.95;100.00
7966;BME280;4028;43.272;26.932;2023-06-22T02:52:17;99419.53;;;20.98;100.00
7966;BME280;4028;43.272;26.932;2023-06-22T02:54:42;99425.34;;;20.89;100.00
7966;BME280;4028;43.272;26.932;2023-06-22T02:57:10;99419.75;;;20.97;100.00
7966;BME280;4028;43.272;26.932;2023-06-22T02:59:39;99422.66;;;20.89;100.00
7966;BME280;4028;43.272;26.932;2023-06-22T03:02:06;99431.97;;;20.93;100.00
7966;BME280;4028;43.272;26.932;2023-06-22T03:04:31;99428.44;;;20.92;100.00
7966;BME280;4028;43.272;26.932;2023-06-22T03:06:57;99443.97;;;21.03;100.00
7966;BME280;4028;43.272;26.932;2023-06-22T03:09:27;99439.66;;;21.09;100.00
7966;BME280;4028;43.272;26.932;2023-06-22T03:11:55;99434.06;;;21.11;100.00
7966;BME280;4028;43.272;26.932;2023-06-22T03:14:21;99439.25;;;21.12;100.00
7966;BME280;4028;43.272;26.932;2023-06-22T03:16:46;99436.34;;;21.07;100.00
7966;BME280;4028;43.272;26.932;2023-06-22T03:19:12;99424.34;;;21.10;100.00
7966;BME280;4028;43.272;26.932;2023-06-22T03:21:38;99429.13;;;21.14;100.00
7966;BME280;4028;43.272;26.932;2023-06-22T03:24:06;99434.28;;;21.22;100.00
7966;BME280;4028;43.272;26.932;2023-06-22T03:26:31;99440.50;;;21.23;100.00
7966;BME280;4028;43.272;26.932;2023-06-22T03:28:57;99439.28;;;21.32;100.00
7966;BME280;4028;43.272;26.932;2023-06-22T03:31:23;99442.19;;;21.31;100.00
7966;BME280;4028;43.272;26.932;2023-06-22T03:33:49;99438.06;;;21.35;100.00
7966;BME280;4028;43.272;26.932;2023-06-22T03:36:15;99443.88;;;21.45;100.00
7966;BME280;4028;43.272;26.932;2023-06-22T03:38:48;99444.69;;;21.52;100.00
7966;BME280;4028;43.272;26.932;2023-06-22T03:41:14;99440.53;;;21.69;100.00
7966;BME280;4028;43.272;26.932;2023-06-22T03:43:39;99453.78;;;21.91;100.00
7966;BME280;4028;43.272;26.932;2023-06-22T03:46:05;99440.50;;;21.96;100.00
7966;BME280;4028;43.272;26.932;2023-06-22T03:48:31;99453.31;;;22.27;100.00
7966;BME280;4028;43.272;26.932;2023-06-22T03:50:56;99459.97;;;23.14;100.00
7966;BME280;4028;43.272;26.932;2023-06-22T03:53:22;99452.09;;;24.12;100.00
7966;BME280;4028;43.272;26.932;2023-06-22T03:55:49;99455.47;;;25.11;100.00
7966;BME280;4028;43.272;26.932;2023-06-22T03:58:16;99460.44;;;25.91;100.00
7966;BME280;4028;43.272;26.932;2023-06-22T04:00:41;99456.44;;;26.69;100.00
7966;BME280;4028;43.272;26.932;2023-06-22T04:03:07;99459.50;;;27.47;91.34
7966;BME280;4028;43.272;26.932;2023-06-22T04:05:32;99451.81;;;28.11;79.15
7966;BME280;4028;43.272;26.932;2023-06-22T04:07:58;99457.97;;;28.89;73.35
7966;BME280;4028;43.272;26.932;2023-06-22T04:10:23;99417.13;;;29.48;65.93
7966;BME280;4028;43.272;26.932;2023-06-22T04:12:49;99452.16;;;30.51;60.59
7966;BME280;4028;43.272;26.932;2023-06-22T04:15:14;99459.44;;;31.24;55.90
7966;BME280;4028;43.272;26.932;2023-06-22T04:17:40;99455.94;;;31.85;53.39
7966;BME280;4028;43.272;26.932;2023-06-22T04:20:06;99459.03;;;32.53;51.52
7966;BME280;4028;43.272;26.932;2023-06-22T04:22:32;99460.38;;;33.10;50.74
7966;BME280;4028;43.272;26.932;2023-06-22T04:24:57;99462.63;;;33.42;49.45
7966;BME280;4028;43.272;26.932;2023-06-22T04:27:23;99455.91;;;33.63;48.37
7966;BME280;4028;43.272;26.932;2023-06-22T04:29:48;99464.50;;;33.81;46.27
7966;BME280;4028;43.272;26.932;2023-06-22T04:32:17;99464.28;;;34.06;46.19
7966;BME280;4028;43.272;26.932;2023-06-22T04:34:43;99455.50;;;34.28;45.25
7966;BME280;4028;43.272;26.932;2023-06-22T04:37:09;99457.53;;;34.47;44.48
7966;BME280;4028;43.272;26.932;2023-06-22T04:39:34;99465.94;;;34.74;44.28
7966;BME280;4028;43.272;26.932;2023-06-22T04:42:01;99466.81;;;35.12;42.75
7966;BME280;4028;43.272;26.932;2023-06-22T04:44:26;99459.38;;;35.13;42.52
7966;BME280;4028;43.272;26.932;2023-06-22T04:46:55;99464.75;;;35.37;40.36
7966;BME280;4028;43.272;26.932;2023-06-22T04:49:26;99471.91;;;35.38;40.96
7966;BME280;4028;43.272;26.932;2023-06-22T04:51:59;99438.03;;;35.24;39.94
7966;BME280;4028;43.272;26.932;2023-06-22T04:54:25;99476.06;;;35.54;39.63
7966;BME280;4028;43.272;26.932;2023-06-22T04:57:02;99471.06;;;35.56;39.30
7966;BME280;4028;43.272;26.932;2023-06-22T04:59:29;99482.13;;;35.70;38.95
7966;BME280;4028;43.272;26.932;2023-06-22T05:01:56;99470.03;;;35.85;38.75
7966;BME280;4028;43.272;26.932;2023-06-22T05:04:23;99476.31;;;36.04;38.01
7966;BME280;4028;43.272;26.932;2023-06-22T05:06:50;99476.22;;;36.09;36.37
7966;BME280;4028;43.272;26.932;2023-06-22T05:09:15;99475.59;;;36.12;37.01
7966;BME280;4028;43.272;26.932;2023-06-22T05:11:42;99473.88;;;36.16;34.98
7966;BME280;4028;43.272;26.932;2023-06-22T05:14:08;99477.41;;;36.03;36.46
7966;BME280;4028;43.272;26.932;2023-06-22T05:16:33;99479.16;;;35.99;37.18
7966;BME280;4028;43.272;26.932;2023-06-22T05:18:59;99464.09;;;35.78;36.16
7966;BME280;4028;43.272;26.932;2023-06-22T05:21:26;99483.16;;;35.74;38.52
7966;BME280;4028;43.272;26.932;2023-06-22T05:23:53;99493.19;;;34.95;40.34
7966;BME280;4028;43.272;26.932;2023-06-22T05:26:19;99494.00;;;33.99;40.16
7966;BME280;4028;43.272;26.932;2023-06-22T05:28:45;99485.97;;;32.95;42.73
7966;BME280;4028;43.272;26.932;2023-06-22T05:31:14;99472.84;;;32.12;45.14
7966;BME280;4028;43.272;26.932;2023-06-22T05:33:41;99492.31;;;31.75;47.18
7966;BME280;4028;43.272;26.932;2023-06-22T05:36:06;99493.38;;;31.33;48.72
7966;BME280;4028;43.272;26.932;2023-06-22T05:38:32;99492.19;;;30.98;47.10
7966;BME280;4028;43.272;26.932;2023-06-22T05:40:58;99490.22;;;29.89;50.92
7966;BME280;4028;43.272;26.932;2023-06-22T05:43:23;99492.59;;;29.75;54.56
7966;BME280;4028;43.272;26.932;2023-06-22T05:45:49;99488.94;;;29.59;53.50
7966;BME280;4028;43.272;26.932;2023-06-22T05:48:14;99490.69;;;29.43;53.75
7966;BME280;4028;43.272;26.932;2023-06-22T05:50:40;99493.97;;;29.45;55.82
7966;BME280;4028;43.272;26.932;2023-06-22T05:53:05;99487.91;;;29.38;58.66
7966;BME280;4028;43.272;26.932;2023-06-22T05:55:32;99488.63;;;28.58;61.55
7966;BME280;4028;43.272;26.932;2023-06-22T05:57:58;99491.28;;;28.74;62.77
7966;BME280;4028;43.272;26.932;2023-06-22T06:00:23;99479.91;;;28.78;59.96
7966;BME280;4028;43.272;26.932;2023-06-22T06:02:49;99479.38;;;28.81;60.03
7966;BME280;4028;43.272;26.932;2023-06-22T06:05:15;99487.59;;;28.86;62.81
7966;BME280;4028;43.272;26.932;2023-06-22T06:07:42;99496.81;;;28.58;60.43
7966;BME280;4028;43.272;26.932;2023-06-22T06:10:08;99496.44;;;28.32;62.50
7966;BME280;4028;43.272;26.932;2023-06-22T06:12:34;99497.31;;;27.99;68.91
7966;BME280;4028;43.272;26.932;2023-06-22T06:14:59;99498.22;;;27.88;71.25
7966;BME280;4028;43.272;26.932;2023-06-22T06:17:25;99497.91;;;27.84;73.00
7966;BME280;4028;43.272;26.932;2023-06-22T06:19:51;99505.09;;;27.90;72.21
7966;BME280;4028;43.272;26.932;2023-06-22T06:22:16;99503.31;;;27.67;69.76
7966;BME280;4028;43.272;26.932;2023-06-22T06:24:42;99494.66;;;27.54;76.72
7966;BME280;4028;43.272;26.932;2023-06-22T06:27:07;99494.47;;;27.43;79.26
7966;BME280;4028;43.272;26.932;2023-06-22T06:29:33;99507.66;;;27.52;86.92
7966;BME280;4028;43.272;26.932;2023-06-22T06:31:59;99504.78;;;27.41;76.12
7966;BME280;4028;43.272;26.932;2023-06-22T06:34:24;99497.13;;;27.55;83.87
7966;BME280;4028;43.272;26.932;2023-06-22T06:36:49;99497.91;;;27.84;80.84
7966;BME280;4028;43.272;26.932;2023-06-22T06:39:15;99498.13;;;28.16;77.62
7966;BME280;4028;43.272;26.932;2023-06-22T06:41:41;99501.28;;;28.30;73.27
7966;BME280;4028;43.272;26.932;2023-06-22T06:44:06;99480.69;;;28.34;64.31
7966;BME280;4028;43.272;26.932;2023-06-22T06:46:32;99501.16;;;28.59;64.01
7966;BME280;4028;43.272;26.932;2023-06-22T06:48:57;99495.09;;;28.95;67.10
7966;BME280;4028;43.272;26.932;2023-06-22T06:51:23;99496.88;;;29.12;62.71
7966;BME280;4028;43.272;26.932;2023-06-22T06:53:49;99488.97;;;29.37;59.90
7966;BME280;4028;43.272;26.932;2023-06-22T06:56:14;99496.88;;;29.66;61.54
7966;BME280;4028;43.272;26.932;2023-06-22T06:58:43;99429.28;;;29.36;60.99
7966;BME280;4028;43.272;26.932;2023-06-22T07:01:11;99482.75;;;29.69;58.31
7966;BME280;4028;43.272;26.932;2023-06-22T07:03:37;99486.66;;;29.51;56.62
7966;BME280;4028;43.272;26.932;2023-06-22T07:06:03;99478.06;;;29.64;59.48
7966;BME280;4028;43.272;26.932;2023-06-22T07:08:28;99461.75;;;29.69;57.49
7966;BME280;4028;43.272;26.932;2023-06-22T07:10:54;99481.34;;;30.09;56.09
7966;BME280;4028;43.272;26.932;2023-06-22T07:13:19;99479.53;;;30.19;57.52
7966;BME280;4028;43.272;26.932;2023-06-22T07:15:45;99488.84;;;30.23;53.05
7966;BME280;4028;43.272;26.932;2023-06-22T07:18:10;99470.28;;;30.20;55.90
7966;BME280;4028;43.272;26.932;2023-06-22T07:20:36;99480.03;;;30.11;53.64
7966;BME280;4028;43.272;26.932;2023-06-22T07:23:02;99480.25;;;30.04;53.14
7966;BME280;4028;43.272;26.932;2023-06-22T07:25:28;99484.56;;;29.95;56.17
7966;BME280;4028;43.272;26.932;2023-06-22T07:28:00;99488.00;;;29.81;53.86
7966;BME280;4028;43.272;26.932;2023-06-22T07:30:26;99482.88;;;29.25;54.37
7966;BME280;4028;43.272;26.932;2023-06-22T07:32:52;99443.78;;;28.87;55.37
7966;BME280;4028;43.272;26.932;2023-06-22T07:35:18;99471.22;;;29.03;58.63
7966;BME280;4028;43.272;26.932;2023-06-22T07:37:43;99463.00;;;29.57;55.43
7966;BME280;4028;43.272;26.932;2023-06-22T07:40:09;99485.41;;;30.01;53.56
7966;BME280;4028;43.272;26.932;2023-06-22T07:42:35;99463.00;;;30.36;56.01
7966;BME280;4028;43.272;26.932;2023-06-22T07:45:02;99474.91;;;30.72;58.37
7966;BME280;4028;43.272;26.932;2023-06-22T07:47:28;99485.72;;;30.52;54.07
7966;BME280;4028;43.272;26.932;2023-06-22T07:49:55;99488.00;;;30.70;52.33
7966;BME280;4028;43.272;26.932;2023-06-22T07:52:23;99485.56;;;30.74;52.74
7966;BME280;4028;43.272;26.932;2023-06-22T07:54:49;99486.88;;;30.66;51.63
7966;BME280;4028;43.272;26.932;2023-06-22T07:57:15;99481.84;;;30.43;55.10
7966;BME280;4028;43.272;26.932;2023-06-22T07:59:40;99483.38;;;30.23;57.60
7966;BME280;4028;43.272;26.932;2023-06-22T08:02:06;99482.97;;;29.99;54.36
7966;BME280;4028;43.272;26.932;2023-06-22T08:04:31;99479.00;;;29.80;57.77
7966;BME280;4028;43.272;26.932;2023-06-22T08:06:59;99482.53;;;29.48;58.40
7966;BME280;4028;43.272;26.932;2023-06-22T08:09:24;99483.41;;;29.27;58.28
7966;BME280;4028;43.272;26.932;2023-06-22T08:11:50;99481.25;;;29.02;61.28
7966;BME280;4028;43.272;26.932;2023-06-22T08:14:15;99479.25;;;28.92;66.53
7966;BME280;4028;43.272;26.932;2023-06-22T08:16:41;99480.38;;;28.96;59.41
7966;BME280;4028;43.272;26.932;2023-06-22T08:19:07;99483.59;;;29.15;58.08
7966;BME280;4028;43.272;26.932;2023-06-22T08:21:32;99485.34;;;29.54;55.38
7966;BME280;4028;43.272;26.932;2023-06-22T08:23:58;99478.47;;;30.20;55.05
7966;BME280;4028;43.272;26.932;2023-06-22T08:26:23;99473.28;;;30.76;51.41
7966;BME280;4028;43.272;26.932;2023-06-22T08:28:49;99484.25;;;30.92;51.40
7966;BME280;4028;43.272;26.932;2023-06-22T08:31:14;99481.31;;;31.24;47.53
7966;BME280;4028;43.272;26.932;2023-06-22T08:33:40;99469.00;;;31.21;46.48
7966;BME280;4028;43.272;26.932;2023-06-22T08:36:06;99474.78;;;31.30;46.77
7966;BME280;4028;43.272;26.932;2023-06-22T08:38:33;99474.50;;;31.26;48.72
7966;BME280;4028;43.272;26.932;2023-06-22T08:40:58;99472.59;;;31.52;48.15
7966;BME280;4028;43.272;26.932;2023-06-22T08:43:25;99472.88;;;31.71;48.38
7966;BME280;4028;43.272;26.932;2023-06-22T08:45:50;99464.13;;;31.74;47.52
7966;BME280;4028;43.272;26.932;2023-06-22T08:48:16;99474.50;;;31.62;47.13
7966;BME280;4028;43.272;26.932;2023-06-22T08:50:41;99477.44;;;30.99;47.89
7966;BME280;4028;43.272;26.932;2023-06-22T08:53:07;99486.81;;;31.39;50.03
7966;BME280;4028;43.272;26.932;2023-06-22T08:55:33;99480.81;;;31.88;46.52
7966;BME280;4028;43.272;26.932;2023-06-22T08:57:59;99476.44;;;31.87;46.93
7966;BME280;4028;43.272;26.932;2023-06-22T09:00:24;99469.78;;;32.29;46.05
7966;BME280;4028;43.272;26.932;2023-06-22T09:02:50;99473.13;;;32.11;45.57
7966;BME280;4028;43.272;26.932;2023-06-22T09:05:15;99470.81;;;32.53;45.66
7966;BME280;4028;43.272;26.932;2023-06-22T09:07:41;99460.03;;;32.72;44.05
7966;BME280;4028;43.272;26.932;2023-06-22T09:10:07;99466.91;;;32.70;45.30
7966;BME280;4028;43.272;26.932;2023-06-22T09:12:33;99460.44;;;32.50;43.71
7966;BME280;4028;43.272;26.932;2023-06-22T09:15:00;99460.81;;;32.03;47.63
7966;BME280;4028;43.272;26.932;2023-06-22T09:17:26;99476.69;;;31.80;47.54
7966;BME280;4028;43.272;26.932;2023-06-22T09:19:52;99463.78;;;31.04;46.46
7966;BME280;4028;43.272;26.932;2023-06-22T09:22:17;99451.97;;;30.78;47.49
7966;BME280;4028;43.272;26.932;2023-06-22T09:24:43;99466.84;;;30.45;46.86
7966;BME280;4028;43.272;26.932;2023-06-22T09:27:08;99470.97;;;30.48;49.43
7966;BME280;4028;43.272;26.932;2023-06-22T09:29:34;99456.94;;;30.87;50.73
7966;BME280;4028;43.272;26.932;2023-06-22T09:32:02;99452.34;;;31.23;45.05
7966;BME280;4028;43.272;26.932;2023-06-22T09:34:27;99429.63;;;31.02;44.89
7966;BME280;4028;43.272;26.932;2023-06-22T09:36:53;99452.38;;;31.53;45.43
7966;BME280;4028;43.272;26.932;2023-06-22T09:39:19;99444.97;;;31.23;47.30
7966;BME280;4028;43.272;26.932;2023-06-22T09:41:44;99454.56;;;31.41;47.82
7966;BME280;4028;43.272;26.932;2023-06-22T09:44:10;99447.72;;;31.69;45.72
7966;BME280;4028;43.272;26.932;2023-06-22T09:46:35;99445.69;;;32.26;45.84
7966;BME280;4028;43.272;26.932;2023-06-22T09:49:01;99457.31;;;32.72;43.12
7966;BME280;4028;43.272;26.932;2023-06-22T09:51:26;99461.69;;;32.73;43.79
7966;BME280;4028;43.272;26.932;2023-06-22T09:53:52;99452.28;;;32.84;42.31
7966;BME280;4028;43.272;26.932;2023-06-22T09:56:20;99452.94;;;32.71;42.82
7966;BME280;4028;43.272;26.932;2023-06-22T09:58:46;99448.44;;;32.91;43.46
7966;BME280;4028;43.272;26.932;2023-06-22T10:01:12;99438.97;;;33.17;43.30
7966;BME280;4028;43.272;26.932;2023-06-22T10:03:40;99445.13;;;32.99;43.07
7966;BME280;4028;43.272;26.932;2023-06-22T10:06:06;99453.81;;;32.56;44.13
7966;BME280;4028;43.272;26.932;2023-06-22T10:08:33;99450.03;;;32.47;42.00
7966;BME280;4028;43.272;26.932;2023-06-22T10:10:58;99455.16;;;32.64;41.91
7966;BME280;4028;43.272;26.932;2023-06-22T10:13:24;99445.47;;;32.82;40.88
7966;BME280;4028;43.272;26.932;2023-06-22T10:15:50;99401.03;;;32.85;40.97
7966;BME280;4028;43.272;26.932;2023-06-22T10:18:17;99440.81;;;33.22;40.40
7966;BME280;4028;43.272;26.932;2023-06-22T10:20:44;99432.25;;;33.33;42.49
7966;BME280;4028;43.272;26.932;2023-06-22T10:23:09;99447.09;;;32.83;39.51
7966;BME280;4028;43.272;26.932;2023-06-22T10:25:35;99438.75;;;32.54;40.98
7966;BME280;4028;43.272;26.932;2023-06-22T10:28:00;99435.91;;;32.09;43.54
7966;BME280;4028;43.272;26.932;2023-06-22T10:30:26;99438.66;;;32.09;43.26
7966;BME280;4028;43.272;26.932;2023-06-22T10:32:51;99436.50;;;31.76;43.26
7966;BME280;4028;43.272;26.932;2023-06-22T10:35:17;99429.66;;;31.38;43.34
7966;BME280;4028;43.272;26.932;2023-06-22T10:37:46;99429.94;;;31.51;48.38
7966;BME280;4028;43.272;26.932;2023-06-22T10:40:13;99429.38;;;31.75;46.51
7966;BME280;4028;43.272;26.932;2023-06-22T10:42:38;99422.53;;;31.82;44.03
7966;BME280;4028;43.272;26.932;2023-06-22T10:45:05;99411.34;;;31.89;43.62
7966;BME280;4028;43.272;26.932;2023-06-22T10:47:30;99427.88;;;32.33;44.87
7966;BME280;4028;43.272;26.932;2023-06-22T10:49:56;99436.00;;;32.59;43.09
7966;BME280;4028;43.272;26.932;2023-06-22T10:52:21;99432.47;;;32.53;41.67
7966;BME280;4028;43.272;26.932;2023-06-22T10:54:47;99422.19;;;32.20;41.27
7966;BME280;4028;43.272;26.932;2023-06-22T10:57:12;99426.59;;;32.05;42.81
7966;BME280;4028;43.272;26.932;2023-06-22T10:59:38;99425.25;;;31.77;43.11
7966;BME280;4028;43.272;26.932;2023-06-22T11:02:03;99423.34;;;31.73;44.67
7966;BME280;4028;43.272;26.932;2023-06-22T11:04:29;99403.41;;;31.16;43.17
7966;BME280;4028;43.272;26.932;2023-06-22T11:06:54;99422.03;;;31.45;44.95
7966;BME280;4028;43.272;26.932;2023-06-22T11:09:21;99415.94;;;31.78;43.55
7966;BME280;4028;43.272;26.932;2023-06-22T11:11:47;99421.44;;;31.89;42.90
7966;BME280;4028;43.272;26.932;2023-06-22T11:14:13;99420.63;;;31.57;43.34
7966;BME280;4028;43.272;26.932;2023-06-22T11:16:39;99419.81;;;31.31;44.12
7966;BME280;4028;43.272;26.932;2023-06-22T11:19:05;99409.69;;;31.68;44.46
7966;BME280;4028;43.272;26.932;2023-06-22T11:21:31;99375.22;;;31.82;45.67
7966;BME280;4028;43.272;26.932;2023-06-22T11:23:58;99395.00;;;32.44;45.40
7966;BME280;4028;43.272;26.932;2023-06-22T11:26:24;99421.03;;;32.91;43.46
7966;BME280;4028;43.272;26.932;2023-06-22T11:28:52;99410.03;;;32.96;42.45
7966;BME280;4028;43.272;26.932;2023-06-22T11:31:17;99415.75;;;33.04;41.96
7966;BME280;4028;43.272;26.932;2023-06-22T11:33:43;99411.72;;;32.97;41.18
7966;BME280;4028;43.272;26.932;2023-06-22T11:36:11;99408.75;;;32.83;41.21
7966;BME280;4028;43.272;26.932;2023-06-22T11:38:37;99407.91;;;32.88;41.20
7966;BME280;4028;43.272;26.932;2023-06-22T11:41:05;99395.00;;;32.93;41.14
7966;BME280;4028;43.272;26.932;2023-06-22T11:43:31;99402.97;;;32.40;41.52
7966;BME280;4028;43.272;26.932;2023-06-22T11:45:56;99407.78;;;32.58;41.58
7966;BME280;4028;43.272;26.932;2023-06-22T11:48:24;99400.00;;;32.76;43.25
7966;BME280;4028;43.272;26.932;2023-06-22T11:50:50;99400.31;;;32.69;41.73
7966;BME280;4028;43.272;26.932;2023-06-22T11:53:15;99398.31;;;32.85;43.26
7966;BME280;4028;43.272;26.932;2023-06-22T11:55:45;99398.56;;;32.94;42.86
7966;BME280;4028;43.272;26.932;2023-06-22T11:58:10;99392.88;;;32.75;43.51
7966;BME280;4028;43.272;26.932;2023-06-22T12:00:37;99402.97;;;32.30;41.53
7966;BME280;4028;43.272;26.932;2023-06-22T12:03:03;99378.47;;;31.99;41.82
7966;BME280;4028;43.272;26.932;2023-06-22T12:05:28;99402.22;;;32.09;43.02
7966;BME280;4028;43.272;26.932;2023-06-22T12:07:54;99399.28;;;31.95;41.47
7966;BME280;4028;43.272;26.932;2023-06-22T12:10:20;99398.72;;;31.93;41.55
7966;BME280;4028;43.272;26.932;2023-06-22T12:12:46;99397.09;;;31.87;42.21
7966;BME280;4028;43.272;26.932;2023-06-22T12:15:11;99398.50;;;31.64;41.79
7966;BME280;4028;43.272;26.932;2023-06-22T12:17:38;99397.13;;;31.51;43.77
7966;BME280;4028;43.272;26.932;2023-06-22T12:20:04;99400.94;;;31.25;43.65
7966;BME280;4028;43.272;26.932;2023-06-22T12:22:34;99400.94;;;31.25;43.85
7966;BME280;4028;43.272;26.932;2023-06-22T12:25:00;99402.63;;;31.26;43.11
7966;BME280;4028;43.272;26.932;2023-06-22T12:27:26;99374.97;;;31.43;43.94
7966;BME280;4028;43.272;26.932;2023-06-22T12:29:51;99392.16;;;31.94;43.00
7966;BME280;4028;43.272;26.932;2023-06-22T12:32:17;99387.22;;;31.96;42.54
7966;BME280;4028;43.272;26.932;2023-06-22T12:34:43;99349.72;;;32.02;43.32
7966;BME280;4028;43.272;26.932;2023-06-22T12:37:09;99385.22;;;32.17;41.41
7966;BME280;4028;43.272;26.932;2023-06-22T12:39:35;99354.66;;;32.00;41.60
7966;BME280;4028;43.272;26.932;2023-06-22T12:42:00;99386.03;;;32.18;42.52
7966;BME280;4028;43.272;26.932;2023-06-22T12:44:26;99378.63;;;32.23;42.49
7966;BME280;4028;43.272;26.932;2023-06-22T12:46:51;99352.84;;;32.29;41.58
7966;BME280;4028;43.272;26.932;2023-06-22T12:49:17;99375.03;;;32.33;40.42
7966;BME280;4028;43.272;26.932;2023-06-22T12:51:43;99385.53;;;32.16;40.63
7966;BME280;4028;43.272;26.932;2023-06-22T12:54:09;99382.28;;;31.98;40.79
7966;BME280;4028;43.272;26.932;2023-06-22T12:56:35;99376.88;;;31.52;40.42
7966;BME280;4028;43.272;26.932;2023-06-22T12:59:01;99363.22;;;31.12;42.33
7966;BME280;4028;43.272;26.932;2023-06-22T13:01:32;99377.72;;;31.07;42.51
7966;BME280;4028;43.272;26.932;2023-06-22T13:03:58;99372.47;;;30.75;43.55
7966;BME280;4028;43.272;26.932;2023-06-22T13:06:24;99377.72;;;30.87;43.56
7966;BME280;4028;43.272;26.932;2023-06-22T13:08:50;99382.09;;;31.08;45.14
7966;BME280;4028;43.272;26.932;2023-06-22T13:11:15;99377.47;;;31.34;45.05